sensor_id;sensor_type;location;lat;lon;timestamp;P1;durP1;ratioP1;P2;durP2;ratioP2
7001;SDS011;3541;53.230;10.518;2022-09-23T00:00:43;1.90;;;1.40;;
7001;SDS011;3541;53.230;10.518;2022-09-23T00:03:11;3.75;;;1.85;;
7001;SDS011;3541;53.230;10.518;2022-09-23T00:05:39;1.40;;;1.30;;
7001;SDS011;3541;53.230;10.518;2022-09-23T00:08:06;2.50;;;1.70;;
7001;SDS011;3541;53.230;10.518;2022-09-23T00:10:35;2.73;;;1.70;;
7001;SDS011;3541;53.230;10.518;2022-09-23T00:13:03;2.37;;;2.03;;
7001;SDS011;3541;53.230;10.518;2022-09-23T00:15:36;2.80;;;1.60;;
7001;SDS011;3541;53.230;10.518;2022-09-23T00:18:03;3.60;;;1.70;;
7001;SDS011;3541;53.230;10.518;2022-09-23T00:20:31;2.23;;;1.70;;
7001;SDS011;3541;53.230;10.518;2022-09-23T00:22:58;1.70;;;1.40;;
7001;SDS011;3541;53.230;10.518;2022-09-23T00:25:25;2.20;;;1.60;;
7001;SDS011;3541;53.230;10.518;2022-09-23T00:27:53;1.60;;;1.50;;
7001;SDS011;3541;53.230;10.518;2022-09-23T00:30:21;1.87;;;1.70;;
7001;SDS011;3541;53.230;10.518;2022-09-23T00:32:49;3.00;;;1.70;;
7001;SDS011;3541;53.230;10.518;2022-09-23T00:35:16;2.50;;;1.50;;
7001;SDS011;3541;53.230;10.518;2022-09-23T00:37:43;2.10;;;1.70;;
7001;SDS011;3541;53.230;10.518;2022-09-23T00:40:10;3.10;;;1.90;;
7001;SDS011;3541;53.230;10.518;2022-09-23T00:42:37;1.83;;;1.67;;
7001;SDS011;3541;53.230;10.518;2022-09-23T00:45:11;3.40;;;1.70;;
7001;SDS011;3541;53.230;10.518;2022-09-23T00:47:40;2.67;;;1.77;;
7001;SDS011;3541;53.230;10.518;2022-09-23T00:50:14;1.90;;;1.70;;
7001;SDS011;3541;53.230;10.518;2022-09-23T00:52:48;2.63;;;1.67;;
7001;SDS011;3541;53.230;10.518;2022-09-23T00:55:18;1.90;;;1.30;;
7001;SDS011;3541;53.230;10.518;2022-09-23T00:57:50;2.20;;;1.90;;
7001;SDS011;3541;53.230;10.518;2022-09-23T01:00:19;1.60;;;1.50;;
7001;SDS011;3541;53.230;10.518;2022-09-23T01:02:47;2.30;;;1.63;;
7001;SDS011;3541;53.230;10.518;2022-09-23T01:05:15;3.50;;;1.67;;
7001;SDS011;3541;53.230;10.518;2022-09-23T01:07:42;2.57;;;2.27;;
7001;SDS011;3541;53.230;10.518;2022-09-23T01:10:09;2.20;;;1.77;;
7001;SDS011;3541;53.230;10.518;2022-09-23T01:12:41;2.07;;;1.60;;
7001;SDS011;3541;53.230;10.518;2022-09-23T01:15:33;2.17;;;1.50;;
7001;SDS011;3541;53.230;10.518;2022-09-23T01:18:07;3.00;;;1.73;;
7001;SDS011;3541;53.230;10.518;2022-09-23T01:20:55;2.83;;;1.77;;
7001;SDS011;3541;53.230;10.518;2022-09-23T01:23:35;3.20;;;1.73;;
7001;SDS011;3541;53.230;10.518;2022-09-23T01:26:34;3.60;;;1.50;;
7001;SDS011;3541;53.230;10.518;2022-09-23T01:29:18;5.07;;;2.67;;
7001;SDS011;3541;53.230;10.518;2022-09-23T01:32:07;2.57;;;1.80;;
7001;SDS011;3541;53.230;10.518;2022-09-23T01:34:42;2.57;;;1.60;;
7001;SDS011;3541;53.230;10.518;2022-09-23T01:37:16;4.00;;;1.80;;
7001;SDS011;3541;53.230;10.518;2022-09-23T01:39:50;2.17;;;1.80;;
7001;SDS011;3541;53.230;10.518;2022-09-23T01:42:26;1.73;;;1.50;;
7001;SDS011;3541;53.230;10.518;2022-09-23T01:44:59;2.60;;;1.70;;
7001;SDS011;3541;53.230;10.518;2022-09-23T01:47:34;2.30;;;2.00;;
7001;SDS011;3541;53.230;10.518;2022-09-23T01:50:05;2.73;;;1.60;;
7001;SDS011;3541;53.230;10.518;2022-09-23T01:53:09;1.73;;;1.63;;
7001;SDS011;3541;53.230;10.518;2022-09-23T01:55:40;3.63;;;1.70;;
7001;SDS011;3541;53.230;10.518;2022-09-23T01:58:12;1.63;;;1.53;;
7001;SDS011;3541;53.230;10.518;2022-09-23T02:00:48;2.37;;;1.90;;
7001;SDS011;3541;53.230;10.518;2022-09-23T02:03:21;2.03;;;1.73;;
7001;SDS011;3541;53.230;10.518;2022-09-23T02:05:54;1.93;;;1.50;;
7001;SDS011;3541;53.230;10.518;2022-09-23T02:08:25;2.97;;;1.70;;
7001;SDS011;3541;53.230;10.518;2022-09-23T02:10:57;3.37;;;1.80;;
7001;SDS011;3541;53.230;10.518;2022-09-23T02:13:28;2.50;;;1.80;;
7001;SDS011;3541;53.230;10.518;2022-09-23T02:16:00;2.40;;;1.83;;
7001;SDS011;3541;53.230;10.518;2022-09-23T02:18:35;2.17;;;1.70;;
7001;SDS011;3541;53.230;10.518;2022-09-23T02:21:10;5.13;;;1.70;;
7001;SDS011;3541;53.230;10.518;2022-09-23T02:23:41;3.10;;;1.60;;
7001;SDS011;3541;53.230;10.518;2022-09-23T02:26:11;2.27;;;1.60;;
7001;SDS011;3541;53.230;10.518;2022-09-23T02:28:46;3.50;;;1.87;;
7001;SDS011;3541;53.230;10.518;2022-09-23T02:31:19;3.23;;;1.57;;
7001;SDS011;3541;53.230;10.518;2022-09-23T02:33:54;2.30;;;1.80;;
7001;SDS011;3541;53.230;10.518;2022-09-23T02:36:25;2.70;;;2.00;;
7001;SDS011;3541;53.230;10.518;2022-09-23T02:38:56;2.10;;;1.80;;
7001;SDS011;3541;53.230;10.518;2022-09-23T02:41:27;2.93;;;1.67;;
7001;SDS011;3541;53.230;10.518;2022-09-23T02:44:01;2.07;;;1.70;;
7001;SDS011;3541;53.230;10.518;2022-09-23T02:46:30;2.53;;;1.57;;
7001;SDS011;3541;53.230;10.518;2022-09-23T02:48:59;1.90;;;1.70;;
7001;SDS011;3541;53.230;10.518;2022-09-23T02:51:29;1.63;;;1.50;;
7001;SDS011;3541;53.230;10.518;2022-09-23T02:53:58;1.70;;;1.60;;
7001;SDS011;3541;53.230;10.518;2022-09-23T02:56:27;2.37;;;2.00;;
7001;SDS011;3541;53.230;10.518;2022-09-23T02:58:54;2.30;;;1.80;;
7001;SDS011;3541;53.230;10.518;2022-09-23T03:01:24;2.83;;;1.80;;
7001;SDS011;3541;53.230;10.518;2022-09-23T03:04:06;2.47;;;1.80;;
7001;SDS011;3541;53.230;10.518;2022-09-23T03:06:43;2.00;;;1.70;;
7001;SDS011;3541;53.230;10.518;2022-09-23T03:09:18;1.83;;;1.70;;
7001;SDS011;3541;53.230;10.518;2022-09-23T03:12:00;2.10;;;1.87;;
7001;SDS011;3541;53.230;10.518;2022-09-23T03:14:34;3.07;;;1.83;;
7001;SDS011;3541;53.230;10.518;2022-09-23T03:17:08;2.60;;;1.80;;
7001;SDS011;3541;53.230;10.518;2022-09-23T03:19:40;4.40;;;1.90;;
7001;SDS011;3541;53.230;10.518;2022-09-23T03:22:12;1.90;;;1.70;;
7001;SDS011;3541;53.230;10.518;2022-09-23T03:24:43;5.13;;;1.73;;
7001;SDS011;3541;53.230;10.518;2022-09-23T03:27:13;2.13;;;1.90;;
7001;SDS011;3541;53.230;10.518;2022-09-23T03:29:43;2.10;;;1.80;;
7001;SDS011;3541;53.230;10.518;2022-09-23T03:32:13;2.00;;;1.80;;
7001;SDS011;3541;53.230;10.518;2022-09-23T03:34:45;1.90;;;1.57;;
7001;SDS011;3541;53.230;10.518;2022-09-23T03:37:15;2.53;;;1.70;;
7001;SDS011;3541;53.230;10.518;2022-09-23T03:39:49;2.30;;;1.80;;
7001;SDS011;3541;53.230;10.518;2022-09-23T03:42:21;3.23;;;1.80;;
7001;SDS011;3541;53.230;10.518;2022-09-23T03:44:50;3.27;;;1.63;;
7001;SDS011;3541;53.230;10.518;2022-09-23T03:47:20;3.10;;;2.00;;
7001;SDS011;3541;53.230;10.518;2022-09-23T03:49:50;2.50;;;1.70;;
7001;SDS011;3541;53.230;10.518;2022-09-23T03:52:18;2.13;;;1.63;;
7001;SDS011;3541;53.230;10.518;2022-09-23T03:54:46;3.27;;;1.77;;
7001;SDS011;3541;53.230;10.518;2022-09-23T03:57:13;2.50;;;1.73;;
7001;SDS011;3541;53.230;10.518;2022-09-23T03:59:40;3.00;;;1.80;;
7001;SDS011;3541;53.230;10.518;2022-09-23T04:02:07;1.87;;;1.53;;
7001;SDS011;3541;53.230;10.518;2022-09-23T04:04:34;3.13;;;1.70;;
7001;SDS011;3541;53.230;10.518;2022-09-23T04:07:04;2.87;;;1.90;;
7001;SDS011;3541;53.230;10.518;2022-09-23T04:09:31;2.87;;;1.70;;
7001;SDS011;3541;53.230;10.518;2022-09-23T04:11:57;1.90;;;1.70;;
7001;SDS011;3541;53.230;10.518;2022-09-23T04:14:24;3.53;;;1.60;;
7001;SDS011;3541;53.230;10.518;2022-09-23T04:16:51;2.73;;;1.80;;
7001;SDS011;3541;53.230;10.518;2022-09-23T04:19:18;1.90;;;1.70;;
7001;SDS011;3541;53.230;10.518;2022-09-23T04:21:45;2.97;;;1.60;;
7001;SDS011;3541;53.230;10.518;2022-09-23T04:24:13;2.13;;;1.90;;
7001;SDS011;3541;53.230;10.518;2022-09-23T04:26:41;4.80;;;2.30;;
7001;SDS011;3541;53.230;10.518;2022-09-23T04:29:08;2.07;;;1.80;;
7001;SDS011;3541;53.230;10.518;2022-09-23T04:31:36;2.73;;;1.97;;
7001;SDS011;3541;53.230;10.518;2022-09-23T04:34:03;6.53;;;2.77;;
7001;SDS011;3541;53.230;10.518;2022-09-23T04:36:29;7.63;;;3.17;;
7001;SDS011;3541;53.230;10.518;2022-09-23T04:38:56;5.17;;;2.37;;
7001;SDS011;3541;53.230;10.518;2022-09-23T04:41:24;5.03;;;2.80;;
7001;SDS011;3541;53.230;10.518;2022-09-23T04:43:51;5.17;;;3.40;;
7001;SDS011;3541;53.230;10.518;2022-09-23T04:46:17;7.87;;;3.17;;
7001;SDS011;3541;53.230;10.518;2022-09-23T04:48:44;4.23;;;2.80;;
7001;SDS011;3541;53.230;10.518;2022-09-23T04:51:11;3.13;;;2.50;;
7001;SDS011;3541;53.230;10.518;2022-09-23T04:53:40;4.73;;;2.97;;
7001;SDS011;3541;53.230;10.518;2022-09-23T04:56:08;8.20;;;2.83;;
7001;SDS011;3541;53.230;10.518;2022-09-23T04:58:38;3.60;;;2.60;;
7001;SDS011;3541;53.230;10.518;2022-09-23T05:01:08;5.93;;;2.80;;
7001;SDS011;3541;53.230;10.518;2022-09-23T05:03:36;4.03;;;2.63;;
7001;SDS011;3541;53.230;10.518;2022-09-23T05:06:04;4.03;;;2.60;;
7001;SDS011;3541;53.230;10.518;2022-09-23T05:08:31;2.83;;;2.20;;
7001;SDS011;3541;53.230;10.518;2022-09-23T05:10:59;2.93;;;2.50;;
7001;SDS011;3541;53.230;10.518;2022-09-23T05:13:28;3.10;;;2.03;;
7001;SDS011;3541;53.230;10.518;2022-09-23T05:15:57;3.83;;;1.90;;
7001;SDS011;3541;53.230;10.518;2022-09-23T05:18:25;3.80;;;2.17;;
7001;SDS011;3541;53.230;10.518;2022-09-23T05:20:52;3.43;;;1.93;;
7001;SDS011;3541;53.230;10.518;2022-09-23T05:23:19;3.07;;;2.00;;
7001;SDS011;3541;53.230;10.518;2022-09-23T05:25:46;3.30;;;2.30;;
7001;SDS011;3541;53.230;10.518;2022-09-23T05:28:13;4.03;;;2.23;;
7001;SDS011;3541;53.230;10.518;2022-09-23T05:30:43;3.57;;;2.10;;
7001;SDS011;3541;53.230;10.518;2022-09-23T05:33:11;2.47;;;2.20;;
7001;SDS011;3541;53.230;10.518;2022-09-23T05:35:38;2.73;;;1.90;;
7001;SDS011;3541;53.230;10.518;2022-09-23T05:38:05;2.33;;;1.93;;
7001;SDS011;3541;53.230;10.518;2022-09-23T05:40:32;3.27;;;2.17;;
7001;SDS011;3541;53.230;10.518;2022-09-23T05:42:58;2.17;;;1.93;;
7001;SDS011;3541;53.230;10.518;2022-09-23T05:45:25;3.30;;;2.30;;
7001;SDS011;3541;53.230;10.518;2022-09-23T05:47:51;2.57;;;2.00;;
7001;SDS011;3541;53.230;10.518;2022-09-23T05:50:19;4.47;;;2.03;;
7001;SDS011;3541;53.230;10.518;2022-09-23T05:52:46;2.30;;;2.10;;
7001;SDS011;3541;53.230;10.518;2022-09-23T05:55:12;3.53;;;2.30;;
7001;SDS011;3541;53.230;10.518;2022-09-23T05:57:39;4.27;;;2.00;;
7001;SDS011;3541;53.230;10.518;2022-09-23T06:00:07;2.70;;;1.90;;
7001;SDS011;3541;53.230;10.518;2022-09-23T06:02:34;3.33;;;2.00;;
7001;SDS011;3541;53.230;10.518;2022-09-23T06:05:01;6.10;;;2.40;;
7001;SDS011;3541;53.230;10.518;2022-09-23T06:07:29;3.90;;;2.30;;
7001;SDS011;3541;53.230;10.518;2022-09-23T06:09:56;4.03;;;2.23;;
7001;SDS011;3541;53.230;10.518;2022-09-23T06:12:23;4.13;;;2.30;;
7001;SDS011;3541;53.230;10.518;2022-09-23T06:14:50;3.03;;;2.17;;
7001;SDS011;3541;53.230;10.518;2022-09-23T06:17:16;3.90;;;2.60;;
7001;SDS011;3541;53.230;10.518;2022-09-23T06:19:43;3.60;;;2.40;;
7001;SDS011;3541;53.230;10.518;2022-09-23T06:22:10;3.93;;;2.10;;
7001;SDS011;3541;53.230;10.518;2022-09-23T06:24:42;3.60;;;2.20;;
7001;SDS011;3541;53.230;10.518;2022-09-23T06:27:08;3.00;;;2.00;;
7001;SDS011;3541;53.230;10.518;2022-09-23T06:29:35;4.07;;;2.10;;
7001;SDS011;3541;53.230;10.518;2022-09-23T06:32:03;3.97;;;2.30;;
7001;SDS011;3541;53.230;10.518;2022-09-23T06:34:29;5.30;;;2.30;;
7001;SDS011;3541;53.230;10.518;2022-09-23T06:36:56;4.10;;;2.10;;
7001;SDS011;3541;53.230;10.518;2022-09-23T06:39:23;3.27;;;2.20;;
7001;SDS011;3541;53.230;10.518;2022-09-23T06:41:51;3.37;;;2.20;;
7001;SDS011;3541;53.230;10.518;2022-09-23T06:44:18;3.93;;;2.17;;
7001;SDS011;3541;53.230;10.518;2022-09-23T06:46:44;4.73;;;2.10;;
7001;SDS011;3541;53.230;10.518;2022-09-23T06:49:11;3.73;;;2.30;;
7001;SDS011;3541;53.230;10.518;2022-09-23T06:51:38;4.90;;;2.10;;
7001;SDS011;3541;53.230;10.518;2022-09-23T06:54:05;2.43;;;2.23;;
7001;SDS011;3541;53.230;10.518;2022-09-23T06:56:32;5.20;;;2.23;;
7001;SDS011;3541;53.230;10.518;2022-09-23T06:59:00;4.70;;;2.40;;
7001;SDS011;3541;53.230;10.518;2022-09-23T07:01:26;4.63;;;2.20;;
7001;SDS011;3541;53.230;10.518;2022-09-23T07:03:53;3.53;;;2.10;;
7001;SDS011;3541;53.230;10.518;2022-09-23T07:06:20;4.37;;;2.20;;
7001;SDS011;3541;53.230;10.518;2022-09-23T07:08:46;3.43;;;2.00;;
7001;SDS011;3541;53.230;10.518;2022-09-23T07:11:13;3.57;;;2.00;;
7001;SDS011;3541;53.230;10.518;2022-09-23T07:13:43;2.63;;;1.80;;
7001;SDS011;3541;53.230;10.518;2022-09-23T07:16:11;2.37;;;2.00;;
7001;SDS011;3541;53.230;10.518;2022-09-23T07:18:38;3.07;;;2.77;;
7001;SDS011;3541;53.230;10.518;2022-09-23T07:21:06;4.30;;;2.03;;
7001;SDS011;3541;53.230;10.518;2022-09-23T07:23:35;2.83;;;2.10;;
7001;SDS011;3541;53.230;10.518;2022-09-23T07:26:02;5.10;;;1.93;;
7001;SDS011;3541;53.230;10.518;2022-09-23T07:28:31;2.50;;;2.10;;
7001;SDS011;3541;53.230;10.518;2022-09-23T07:31:01;3.67;;;2.40;;
7001;SDS011;3541;53.230;10.518;2022-09-23T07:33:29;3.53;;;2.00;;
7001;SDS011;3541;53.230;10.518;2022-09-23T07:35:56;4.17;;;2.07;;
7001;SDS011;3541;53.230;10.518;2022-09-23T07:38:23;3.33;;;2.37;;
7001;SDS011;3541;53.230;10.518;2022-09-23T07:40:58;3.03;;;2.23;;
7001;SDS011;3541;53.230;10.518;2022-09-23T07:43:26;6.33;;;2.00;;
7001;SDS011;3541;53.230;10.518;2022-09-23T07:45:56;3.33;;;2.20;;
7001;SDS011;3541;53.230;10.518;2022-09-23T07:48:23;3.83;;;2.17;;
7001;SDS011;3541;53.230;10.518;2022-09-23T07:50:52;3.27;;;1.80;;
7001;SDS011;3541;53.230;10.518;2022-09-23T07:53:18;2.40;;;1.93;;
7001;SDS011;3541;53.230;10.518;2022-09-23T07:55:50;3.30;;;2.30;;
7001;SDS011;3541;53.230;10.518;2022-09-23T07:58:17;4.00;;;2.10;;
7001;SDS011;3541;53.230;10.518;2022-09-23T08:00:44;3.13;;;2.10;;
7001;SDS011;3541;53.230;10.518;2022-09-23T08:03:10;4.53;;;1.87;;
7001;SDS011;3541;53.230;10.518;2022-09-23T08:05:38;3.17;;;2.00;;
7001;SDS011;3541;53.230;10.518;2022-09-23T08:08:06;5.57;;;2.10;;
7001;SDS011;3541;53.230;10.518;2022-09-23T08:10:33;2.60;;;1.97;;
7001;SDS011;3541;53.230;10.518;2022-09-23T08:13:00;6.07;;;2.47;;
7001;SDS011;3541;53.230;10.518;2022-09-23T08:15:27;3.13;;;2.10;;
7001;SDS011;3541;53.230;10.518;2022-09-23T08:17:56;2.70;;;1.80;;
7001;SDS011;3541;53.230;10.518;2022-09-23T08:20:23;4.17;;;2.20;;
7001;SDS011;3541;53.230;10.518;2022-09-23T08:23:09;6.33;;;2.60;;
7001;SDS011;3541;53.230;10.518;2022-09-23T08:25:37;2.73;;;2.10;;
7001;SDS011;3541;53.230;10.518;2022-09-23T08:28:03;2.30;;;1.87;;
7001;SDS011;3541;53.230;10.518;2022-09-23T08:30:30;3.40;;;2.20;;
7001;SDS011;3541;53.230;10.518;2022-09-23T08:32:57;2.63;;;1.83;;
7001;SDS011;3541;53.230;10.518;2022-09-23T08:35:23;3.97;;;2.10;;
7001;SDS011;3541;53.230;10.518;2022-09-23T08:37:50;2.33;;;1.80;;
7001;SDS011;3541;53.230;10.518;2022-09-23T08:40:18;5.13;;;1.93;;
7001;SDS011;3541;53.230;10.518;2022-09-23T08:42:44;2.10;;;1.80;;
7001;SDS011;3541;53.230;10.518;2022-09-23T08:45:13;3.73;;;1.80;;
7001;SDS011;3541;53.230;10.518;2022-09-23T08:47:45;3.10;;;1.83;;
7001;SDS011;3541;53.230;10.518;2022-09-23T08:50:16;2.67;;;1.90;;
7001;SDS011;3541;53.230;10.518;2022-09-23T08:52:47;2.90;;;1.70;;
7001;SDS011;3541;53.230;10.518;2022-09-23T08:55:19;5.37;;;2.33;;
7001;SDS011;3541;53.230;10.518;2022-09-23T08:57:56;4.07;;;2.10;;
7001;SDS011;3541;53.230;10.518;2022-09-23T09:00:32;3.73;;;1.80;;
7001;SDS011;3541;53.230;10.518;2022-09-23T09:03:03;3.17;;;1.80;;
7001;SDS011;3541;53.230;10.518;2022-09-23T09:05:40;2.30;;;1.90;;
7001;SDS011;3541;53.230;10.518;2022-09-23T09:08:07;2.13;;;1.70;;
7001;SDS011;3541;53.230;10.518;2022-09-23T09:10:39;4.27;;;1.90;;
7001;SDS011;3541;53.230;10.518;2022-09-23T09:13:12;2.65;;;1.70;;
7001;SDS011;3541;53.230;10.518;2022-09-23T09:15:50;1.83;;;1.70;;
7001;SDS011;3541;53.230;10.518;2022-09-23T09:18:24;2.77;;;1.67;;
7001;SDS011;3541;53.230;10.518;2022-09-23T09:20:56;7.25;;;2.35;;
7001;SDS011;3541;53.230;10.518;2022-09-23T09:23:26;4.95;;;2.13;;
7001;SDS011;3541;53.230;10.518;2022-09-23T09:26:01;3.42;;;1.70;;
7001;SDS011;3541;53.230;10.518;2022-09-23T09:28:32;3.17;;;1.80;;
7001;SDS011;3541;53.230;10.518;2022-09-23T09:31:04;2.47;;;1.80;;
7001;SDS011;3541;53.230;10.518;2022-09-23T09:33:43;3.03;;;1.80;;
7001;SDS011;3541;53.230;10.518;2022-09-23T09:36:18;2.75;;;2.05;;
7001;SDS011;3541;53.230;10.518;2022-09-23T09:38:51;2.92;;;1.77;;
7001;SDS011;3541;53.230;10.518;2022-09-23T09:41:19;2.40;;;1.70;;
7001;SDS011;3541;53.230;10.518;2022-09-23T09:43:48;3.38;;;1.60;;
7001;SDS011;3541;53.230;10.518;2022-09-23T09:46:26;2.08;;;1.55;;
7001;SDS011;3541;53.230;10.518;2022-09-23T09:49:02;1.80;;;1.35;;
7001;SDS011;3541;53.230;10.518;2022-09-23T09:51:36;2.38;;;1.45;;
7001;SDS011;3541;53.230;10.518;2022-09-23T09:54:14;3.00;;;1.83;;
7001;SDS011;3541;53.230;10.518;2022-09-23T09:56:44;1.70;;;1.52;;
7001;SDS011;3541;53.230;10.518;2022-09-23T09:59:14;2.47;;;1.40;;
7001;SDS011;3541;53.230;10.518;2022-09-23T10:01:47;6.78;;;2.40;;
7001;SDS011;3541;53.230;10.518;2022-09-23T10:04:19;2.92;;;1.60;;
7001;SDS011;3541;53.230;10.518;2022-09-23T10:07:03;2.00;;;1.50;;
7001;SDS011;3541;53.230;10.518;2022-09-23T10:09:31;2.00;;;1.58;;
7001;SDS011;3541;53.230;10.518;2022-09-23T10:12:11;2.33;;;1.70;;
7001;SDS011;3541;53.230;10.518;2022-09-23T10:14:39;4.32;;;1.70;;
7001;SDS011;3541;53.230;10.518;2022-09-23T10:17:06;1.95;;;1.60;;
7001;SDS011;3541;53.230;10.518;2022-09-23T10:19:46;2.88;;;1.55;;
7001;SDS011;3541;53.230;10.518;2022-09-23T10:22:16;3.03;;;1.58;;
7001;SDS011;3541;53.230;10.518;2022-09-23T10:24:49;2.08;;;1.60;;
7001;SDS011;3541;53.230;10.518;2022-09-23T10:27:25;3.08;;;1.83;;
7001;SDS011;3541;53.230;10.518;2022-09-23T10:29:55;2.90;;;1.50;;
7001;SDS011;3541;53.230;10.518;2022-09-23T10:32:25;3.40;;;1.80;;
7001;SDS011;3541;53.230;10.518;2022-09-23T10:34:55;2.53;;;1.67;;
7001;SDS011;3541;53.230;10.518;2022-09-23T10:37:29;3.67;;;1.70;;
7001;SDS011;3541;53.230;10.518;2022-09-23T10:39:59;1.85;;;1.25;;
7001;SDS011;3541;53.230;10.518;2022-09-23T10:42:58;1.67;;;1.40;;
7001;SDS011;3541;53.230;10.518;2022-09-23T10:45:53;3.85;;;1.50;;
7001;SDS011;3541;53.230;10.518;2022-09-23T10:48:45;3.85;;;1.48;;
7001;SDS011;3541;53.230;10.518;2022-09-23T10:51:19;3.67;;;1.50;;
7001;SDS011;3541;53.230;10.518;2022-09-23T10:53:56;2.67;;;1.67;;
7001;SDS011;3541;53.230;10.518;2022-09-23T10:56:30;4.38;;;1.45;;
7001;SDS011;3541;53.230;10.518;2022-09-23T11:01:54;2.30;;;1.80;;
7001;SDS011;3541;53.230;10.518;2022-09-23T11:04:36;6.68;;;2.28;;
7001;SDS011;3541;53.230;10.518;2022-09-23T11:07:20;4.65;;;1.70;;
7001;SDS011;3541;53.230;10.518;2022-09-23T11:10:05;6.40;;;1.58;;
7001;SDS011;3541;53.230;10.518;2022-09-23T11:12:55;3.72;;;1.50;;
7001;SDS011;3541;53.230;10.518;2022-09-23T11:15:34;1.90;;;1.55;;
7001;SDS011;3541;53.230;10.518;2022-09-23T11:18:14;1.70;;;1.50;;
7001;SDS011;3541;53.230;10.518;2022-09-23T11:20:58;5.13;;;1.50;;
7001;SDS011;3541;53.230;10.518;2022-09-23T11:23:38;1.20;;;1.10;;
7001;SDS011;3541;53.230;10.518;2022-09-23T11:26:22;1.75;;;1.50;;
7001;SDS011;3541;53.230;10.518;2022-09-23T11:29:10;1.60;;;1.50;;
7001;SDS011;3541;53.230;10.518;2022-09-23T11:31:49;2.45;;;1.70;;
7001;SDS011;3541;53.230;10.518;2022-09-23T11:34:27;2.88;;;1.55;;
7001;SDS011;3541;53.230;10.518;2022-09-23T11:37:09;2.20;;;1.38;;
7001;SDS011;3541;53.230;10.518;2022-09-23T11:39:40;1.75;;;1.45;;
7001;SDS011;3541;53.230;10.518;2022-09-23T11:42:12;2.45;;;1.60;;
7001;SDS011;3541;53.230;10.518;2022-09-23T11:44:43;1.85;;;1.50;;
7001;SDS011;3541;53.230;10.518;2022-09-23T11:47:16;2.63;;;1.75;;
7001;SDS011;3541;53.230;10.518;2022-09-23T11:49:48;1.58;;;1.33;;
7001;SDS011;3541;53.230;10.518;2022-09-23T11:52:19;2.65;;;1.50;;
7001;SDS011;3541;53.230;10.518;2022-09-23T11:54:50;3.90;;;1.50;;
7001;SDS011;3541;53.230;10.518;2022-09-23T11:57:23;3.17;;;1.60;;
7001;SDS011;3541;53.230;10.518;2022-09-23T11:59:57;5.03;;;1.75;;
7001;SDS011;3541;53.230;10.518;2022-09-23T12:02:29;3.33;;;1.70;;
7001;SDS011;3541;53.230;10.518;2022-09-23T12:05:02;1.70;;;1.60;;
7001;SDS011;3541;53.230;10.518;2022-09-23T12:07:39;2.50;;;1.60;;
7001;SDS011;3541;53.230;10.518;2022-09-23T12:10:11;2.65;;;1.23;;
7001;SDS011;3541;53.230;10.518;2022-09-23T12:12:41;2.50;;;1.73;;
7001;SDS011;3541;53.230;10.518;2022-09-23T12:15:19;5.05;;;1.73;;
7001;SDS011;3541;53.230;10.518;2022-09-23T12:18:00;1.95;;;1.40;;
7001;SDS011;3541;53.230;10.518;2022-09-23T12:20:41;1.88;;;1.48;;
7001;SDS011;3541;53.230;10.518;2022-09-23T12:23:22;1.60;;;1.50;;
7001;SDS011;3541;53.230;10.518;2022-09-23T12:25:57;1.63;;;1.40;;
7001;SDS011;3541;53.230;10.518;2022-09-23T12:28:27;3.17;;;1.30;;
7001;SDS011;3541;53.230;10.518;2022-09-23T12:30:57;1.85;;;1.70;;
7001;SDS011;3541;53.230;10.518;2022-09-23T12:33:28;1.88;;;1.40;;
7001;SDS011;3541;53.230;10.518;2022-09-23T12:36:01;1.77;;;1.50;;
7001;SDS011;3541;53.230;10.518;2022-09-23T12:38:31;2.70;;;1.50;;
7001;SDS011;3541;53.230;10.518;2022-09-23T12:40:59;2.33;;;1.70;;
7001;SDS011;3541;53.230;10.518;2022-09-23T12:43:32;1.50;;;1.40;;
7001;SDS011;3541;53.230;10.518;2022-09-23T12:48:45;2.30;;;1.70;;
7001;SDS011;3541;53.230;10.518;2022-09-23T12:51:21;1.85;;;1.30;;
7001;SDS011;3541;53.230;10.518;2022-09-23T12:53:50;2.47;;;1.40;;
7001;SDS011;3541;53.230;10.518;2022-09-23T12:56:22;2.58;;;1.65;;
7001;SDS011;3541;53.230;10.518;2022-09-23T12:59:09;3.72;;;1.45;;
7001;SDS011;3541;53.230;10.518;2022-09-23T13:01:45;1.48;;;1.38;;
7001;SDS011;3541;53.230;10.518;2022-09-23T13:04:29;2.85;;;1.50;;
7001;SDS011;3541;53.230;10.518;2022-09-23T13:07:15;3.95;;;1.20;;
7001;SDS011;3541;53.230;10.518;2022-09-23T13:09:45;2.03;;;1.30;;
7001;SDS011;3541;53.230;10.518;2022-09-23T13:12:16;2.85;;;1.42;;
7001;SDS011;3541;53.230;10.518;2022-09-23T13:14:45;2.13;;;1.30;;
7001;SDS011;3541;53.230;10.518;2022-09-23T13:17:22;1.98;;;1.60;;
7001;SDS011;3541;53.230;10.518;2022-09-23T13:19:57;3.38;;;1.30;;
7001;SDS011;3541;53.230;10.518;2022-09-23T13:22:39;3.22;;;1.40;;
7001;SDS011;3541;53.230;10.518;2022-09-23T13:25:34;1.58;;;1.48;;
7001;SDS011;3541;53.230;10.518;2022-09-23T13:28:11;1.75;;;1.27;;
7001;SDS011;3541;53.230;10.518;2022-09-23T13:30:46;2.42;;;1.60;;
7001;SDS011;3541;53.230;10.518;2022-09-23T13:33:17;1.50;;;1.40;;
7001;SDS011;3541;53.230;10.518;2022-09-23T13:35:53;1.73;;;1.50;;
7001;SDS011;3541;53.230;10.518;2022-09-23T13:38:25;1.40;;;1.30;;
7001;SDS011;3541;53.230;10.518;2022-09-23T13:40:57;1.85;;;1.40;;
7001;SDS011;3541;53.230;10.518;2022-09-23T13:43:26;1.42;;;1.33;;
7001;SDS011;3541;53.230;10.518;2022-09-23T13:45:55;2.25;;;1.40;;
7001;SDS011;3541;53.230;10.518;2022-09-23T13:48:23;2.65;;;1.30;;
7001;SDS011;3541;53.230;10.518;2022-09-23T13:50:52;1.30;;;1.20;;
7001;SDS011;3541;53.230;10.518;2022-09-23T13:53:21;2.72;;;1.40;;
7001;SDS011;3541;53.230;10.518;2022-09-23T13:55:57;3.00;;;1.50;;
7001;SDS011;3541;53.230;10.518;2022-09-23T13:58:27;1.92;;;1.42;;
7001;SDS011;3541;53.230;10.518;2022-09-23T14:00:54;2.03;;;1.65;;
7001;SDS011;3541;53.230;10.518;2022-09-23T14:03:23;2.30;;;1.33;;
7001;SDS011;3541;53.230;10.518;2022-09-23T14:05:53;1.98;;;1.38;;
7001;SDS011;3541;53.230;10.518;2022-09-23T14:08:20;2.30;;;1.50;;
7001;SDS011;3541;53.230;10.518;2022-09-23T14:10:48;1.65;;;1.40;;
7001;SDS011;3541;53.230;10.518;2022-09-23T14:13:16;1.50;;;1.40;;
7001;SDS011;3541;53.230;10.518;2022-09-23T14:15:45;3.25;;;1.65;;
7001;SDS011;3541;53.230;10.518;2022-09-23T14:18:15;1.80;;;1.67;;
7001;SDS011;3541;53.230;10.518;2022-09-23T14:20:44;6.50;;;2.17;;
7001;SDS011;3541;53.230;10.518;2022-09-23T14:23:12;3.15;;;1.65;;
7001;SDS011;3541;53.230;10.518;2022-09-23T14:25:39;2.08;;;1.50;;
7001;SDS011;3541;53.230;10.518;2022-09-23T14:28:08;2.15;;;1.75;;
7001;SDS011;3541;53.230;10.518;2022-09-23T14:30:39;1.73;;;1.60;;
7001;SDS011;3541;53.230;10.518;2022-09-23T14:33:08;4.13;;;1.60;;
7001;SDS011;3541;53.230;10.518;2022-09-23T14:35:38;1.95;;;1.55;;
7001;SDS011;3541;53.230;10.518;2022-09-23T14:38:08;2.15;;;1.40;;
7001;SDS011;3541;53.230;10.518;2022-09-23T14:40:55;3.05;;;1.60;;
7001;SDS011;3541;53.230;10.518;2022-09-23T14:43:37;2.05;;;1.45;;
7001;SDS011;3541;53.230;10.518;2022-09-23T14:46:04;2.03;;;1.48;;
7001;SDS011;3541;53.230;10.518;2022-09-23T14:48:31;5.53;;;1.55;;
7001;SDS011;3541;53.230;10.518;2022-09-23T14:51:00;3.95;;;1.67;;
7001;SDS011;3541;53.230;10.518;2022-09-23T14:53:33;2.17;;;1.40;;
7001;SDS011;3541;53.230;10.518;2022-09-23T14:56:16;1.75;;;1.60;;
7001;SDS011;3541;53.230;10.518;2022-09-23T14:58:49;3.50;;;1.77;;
7001;SDS011;3541;53.230;10.518;2022-09-23T15:01:24;4.13;;;2.35;;
7001;SDS011;3541;53.230;10.518;2022-09-23T15:03:57;1.60;;;1.50;;
7001;SDS011;3541;53.230;10.518;2022-09-23T15:06:25;3.17;;;1.73;;
7001;SDS011;3541;53.230;10.518;2022-09-23T15:08:53;2.92;;;1.40;;
7001;SDS011;3541;53.230;10.518;2022-09-23T15:11:22;2.00;;;1.40;;
7001;SDS011;3541;53.230;10.518;2022-09-23T15:13:49;1.58;;;1.48;;
7001;SDS011;3541;53.230;10.518;2022-09-23T15:16:22;2.75;;;1.48;;
7001;SDS011;3541;53.230;10.518;2022-09-23T15:18:52;1.63;;;1.50;;
7001;SDS011;3541;53.230;10.518;2022-09-23T15:21:20;3.17;;;1.65;;
7001;SDS011;3541;53.230;10.518;2022-09-23T15:23:49;3.10;;;1.50;;
7001;SDS011;3541;53.230;10.518;2022-09-23T15:26:19;4.07;;;1.50;;
7001;SDS011;3541;53.230;10.518;2022-09-23T15:28:48;2.13;;;1.73;;
7001;SDS011;3541;53.230;10.518;2022-09-23T15:31:18;2.90;;;1.70;;